Los Angeles, California
Traffic Map
Current Weather Conditions
Los Angeles, California
Clear
Clear
16°
Feels Like: 16°
Wind Chill: 16° Ceiling: Unl
Heat Index: 16° Visibility: 10mi
Dew Point: Wind: 0mph
Humidity: 35% Direction: ° ()
Pressure: 30.16in Gusts: 0mph
Raw Report DataKCQT 070547Z AUTO 00000KT 10SM CLR 16/00 A3016 RMK AO2 SLP211 T01560000 10239 20150 51005
Traffic Incident Summary
Active as of:
Severity:
Category:
InformationThere was an issue retrieving the traffic information for this location. Please try a different location or try again shortly.
Advertisements
Track Severe Weather on mobile